createdAt,value
2019-04-03T00:00:10.575Z,42.40
2019-04-03T00:05:14.214Z,42.40
2019-04-03T00:10:17.833Z,42.40
2019-04-03T00:15:21.592Z,42.60
2019-04-03T00:20:25.594Z,42.60
2019-04-03T00:25:29.276Z,42.60
2019-04-03T00:30:32.909Z,42.50
2019-04-03T00:35:36.695Z,42.60
2019-04-03T00:40:40.766Z,42.60
2019-04-03T00:45:44.852Z,42.50
2019-04-03T00:50:48.721Z,42.50
2019-04-03T00:55:52.628Z,42.50
2019-04-03T01:00:56.822Z,42.50
2019-04-03T01:06:01.997Z,42.40
2019-04-03T01:11:05.890Z,42.40
2019-04-03T01:16:09.759Z,42.30
2019-04-03T01:21:14.313Z,42.30
2019-04-03T01:26:18.026Z,42.40
2019-04-03T01:31:21.748Z,42.20
2019-04-03T01:36:25.509Z,42.30
2019-04-03T01:41:29.227Z,42.40
2019-04-03T01:46:32.846Z,42.30
2019-04-03T01:51:36.560Z,42.30
2019-04-03T01:56:40.277Z,42.20
2019-04-03T02:01:43.904Z,42.30
2019-04-03T02:06:47.589Z,42.40
2019-04-03T02:11:53.432Z,42.20
2019-04-03T02:16:57.149Z,42.30
2019-04-03T02:22:02.202Z,42.20
2019-04-03T02:27:05.931Z,42.20
2019-04-03T02:32:09.813Z,42.00
2019-04-03T02:37:16.557Z,42.00
2019-04-03T02:42:18.897Z,42.70
2019-04-03T02:47:22.831Z,43.40
2019-04-03T02:52:26.563Z,42.80
2019-04-03T02:57:30.912Z,42.50
2019-04-03T03:02:34.759Z,42.50
2019-04-03T03:07:38.833Z,42.60
2019-04-03T03:12:42.706Z,42.40
2019-04-03T03:17:46.823Z,42.20
2019-04-03T03:22:51.172Z,42.20
2019-04-03T03:27:55.496Z,42.20
2019-04-03T03:33:22.678Z,42.20
2019-04-03T03:38:07.020Z,42.50
2019-04-03T03:43:10.521Z,41.90
2019-04-03T03:48:14.435Z,42.20
2019-04-03T03:53:18.092Z,42.50
2019-04-03T03:58:21.751Z,42.00
2019-04-03T04:03:25.546Z,42.00
2019-04-03T04:08:29.639Z,41.90
2019-04-03T04:13:34.122Z,42.20
2019-04-03T04:18:38.249Z,42.50
2019-04-03T04:23:42.259Z,41.90
2019-04-03T04:28:46.344Z,42.10
2019-04-03T04:33:51.015Z,41.70
2019-04-03T04:38:55.830Z,42.40
2019-04-03T04:44:00.934Z,41.90
2019-04-03T04:49:04.894Z,41.80
2019-04-03T04:54:08.522Z,41.80
2019-04-03T04:59:13.579Z,41.80
2019-04-03T05:04:18.015Z,41.80
2019-04-03T05:09:21.742Z,41.90
2019-04-03T05:14:25.545Z,41.70
2019-04-03T05:19:29.244Z,41.70
2019-04-03T05:24:33.113Z,41.80
2019-04-03T05:29:36.932Z,41.70
2019-04-03T05:34:43.636Z,41.70
2019-04-03T05:39:47.971Z,41.80
2019-04-03T05:44:53.499Z,41.60
2019-04-03T05:49:57.444Z,41.70
2019-04-03T05:55:01.568Z,41.80
2019-04-03T06:00:06.825Z,41.60
2019-04-03T06:05:13.243Z,41.60
2019-04-03T06:10:17.204Z,41.50
2019-04-03T06:15:21.946Z,41.60
2019-04-03T06:20:27.523Z,42.00
2019-04-03T06:25:31.527Z,42.40
2019-04-03T06:30:36.091Z,42.30
2019-04-03T06:35:39.997Z,42.40
2019-04-03T06:40:43.942Z,42.60
2019-04-03T06:45:47.750Z,42.50
2019-04-03T06:50:51.645Z,42.60
2019-04-03T06:55:55.672Z,42.60
2019-04-03T07:00:59.465Z,42.70
2019-04-03T07:06:03.410Z,42.60
2019-04-03T07:11:07.323Z,42.50
2019-04-03T07:16:11.675Z,42.50
2019-04-03T07:21:15.651Z,42.50
2019-04-03T07:26:19.577Z,42.40
2019-04-03T07:31:24.349Z,42.50
2019-04-03T07:36:28.351Z,43.00
2019-04-03T07:41:32.200Z,42.50
2019-04-03T07:46:35.925Z,42.40
2019-04-03T07:51:39.774Z,42.40
2019-04-03T07:56:43.528Z,42.30
2019-04-03T08:01:47.263Z,42.50
2019-04-03T08:06:51.264Z,42.40
2019-04-03T08:11:55.027Z,42.30
2019-04-03T08:16:58.849Z,42.60
2019-04-03T08:22:02.633Z,42.50
2019-04-03T08:27:08.512Z,42.30
2019-04-03T08:32:11.765Z,42.30
2019-04-03T08:37:27.668Z,42.30
2019-04-03T08:42:25.918Z,42.30
2019-04-03T08:47:28.657Z,42.40
2019-04-03T08:52:34.833Z,42.30
2019-04-03T08:57:38.723Z,42.50
2019-04-03T09:02:45.899Z,42.60
2019-04-03T09:07:49.702Z,42.50
2019-04-03T09:12:54.233Z,42.50
2019-04-03T09:17:58.380Z,42.40
2019-04-03T09:23:02.717Z,42.60
2019-04-03T09:28:06.484Z,46.90
2019-04-03T09:33:10.220Z,47.10
2019-04-03T09:38:14.124Z,46.30
2019-04-03T09:43:18.080Z,46.80
2019-04-03T09:48:21.905Z,46.40
2019-04-03T09:53:26.368Z,44.00
2019-04-03T09:58:30.764Z,44.00
2019-04-03T10:03:34.895Z,43.90
2019-04-03T10:08:40.381Z,43.60
2019-04-03T10:13:45.355Z,43.50
2019-04-03T10:18:49.521Z,43.60
2019-04-03T10:23:53.246Z,43.60
2019-04-03T10:28:57.212Z,44.60
2019-04-03T10:34:03.133Z,43.50
2019-04-03T10:39:08.495Z,43.40
2019-04-03T10:44:12.695Z,43.50
2019-04-03T10:49:17.268Z,43.50
2019-04-03T10:54:21.966Z,43.50
2019-04-03T10:59:26.532Z,43.50
2019-04-03T11:04:30.817Z,43.50
2019-04-03T11:09:54.190Z,43.50
2019-04-03T11:14:57.994Z,44.00
2019-04-03T11:20:02.072Z,67.00
2019-04-03T11:25:06.502Z,46.90
2019-04-03T11:30:11.789Z,47.20
2019-04-03T11:35:16.295Z,45.10
2019-04-03T11:40:20.533Z,44.90
2019-04-03T11:45:24.407Z,44.70
2019-04-03T11:50:28.141Z,44.60
2019-04-03T11:55:32.135Z,44.70
2019-04-03T12:00:42.066Z,44.80
2019-04-03T12:05:47.478Z,44.70
2019-04-03T12:10:51.292Z,44.70
2019-04-03T12:17:30.458Z,44.50
2019-04-03T12:22:35.235Z,45.10
2019-04-03T12:27:39.344Z,45.00
2019-04-03T12:32:48.070Z,48.50
2019-04-03T12:37:50.124Z,49.90
2019-04-03T12:42:54.378Z,49.50
2019-04-03T12:47:58.108Z,47.30
2019-04-03T12:53:01.886Z,47.10
2019-04-03T12:58:06.158Z,46.10
2019-04-03T13:03:10.386Z,45.70
2019-04-03T13:08:14.115Z,45.60
2019-04-03T13:13:18.155Z,45.50
2019-04-03T13:18:22.171Z,45.30
2019-04-03T13:23:25.905Z,45.30
2019-04-03T13:28:29.562Z,45.00
2019-04-03T13:33:33.512Z,45.00
2019-04-03T13:38:37.339Z,45.00
2019-04-03T13:43:41.464Z,45.60
2019-04-03T13:48:45.908Z,45.60
2019-04-03T13:53:52.324Z,45.50
2019-04-03T13:58:56.005Z,45.40
2019-04-03T14:03:59.896Z,45.30
2019-04-03T14:09:05.827Z,45.20
2019-04-03T14:14:09.894Z,45.10
2019-04-03T14:19:13.919Z,45.00
2019-04-03T14:24:18.139Z,45.00
2019-04-03T14:29:21.962Z,44.80
2019-04-03T14:34:29.250Z,44.80
2019-04-03T14:39:31.081Z,44.80
2019-04-03T14:44:35.118Z,44.60
2019-04-03T14:49:39.464Z,44.60
2019-04-03T14:54:43.735Z,44.60
2019-04-03T14:59:47.896Z,44.50
2019-04-03T15:04:52.154Z,44.40
2019-04-03T15:09:57.223Z,44.40
2019-04-03T15:15:01.526Z,44.30
2019-04-03T15:20:06.433Z,44.30
2019-04-03T15:25:10.776Z,44.30
2019-04-03T15:30:18.391Z,44.30
2019-04-03T15:35:22.232Z,44.20
2019-04-03T15:40:27.015Z,44.10
2019-04-03T15:45:30.983Z,44.20
2019-04-03T15:50:37.634Z,44.10
2019-04-03T15:55:40.496Z,44.00
2019-04-03T16:00:44.135Z,44.00
2019-04-03T16:05:49.069Z,44.00
2019-04-03T16:10:54.468Z,44.10
2019-04-03T16:16:17.692Z,46.30
2019-04-03T16:21:23.639Z,45.90
2019-04-03T16:26:26.984Z,46.70
2019-04-03T16:31:30.824Z,46.90
2019-04-03T16:36:35.056Z,46.70
2019-04-03T16:41:39.036Z,46.90
2019-04-03T16:46:42.904Z,46.60
2019-04-03T16:51:47.080Z,46.40
2019-04-03T16:56:51.867Z,46.40
2019-04-03T17:01:55.924Z,46.20
2019-04-03T17:06:59.662Z,46.60
2019-04-03T17:12:03.560Z,45.90
2019-04-03T17:17:12.861Z,45.70
2019-04-03T17:22:13.059Z,45.70
2019-04-03T17:27:17.587Z,45.40
2019-04-03T17:32:21.359Z,45.30
2019-04-03T17:37:27.121Z,45.30
2019-04-03T17:42:31.001Z,45.10
2019-04-03T17:47:36.926Z,45.20
2019-04-03T17:52:57.160Z,45.10
2019-04-03T17:58:01.783Z,45.10
2019-04-03T18:03:05.804Z,45.00
2019-04-03T18:08:10.866Z,45.10
2019-04-03T18:13:17.093Z,45.00
2019-04-03T18:18:21.756Z,45.10
2019-04-03T18:23:25.718Z,45.10
2019-04-03T18:28:29.559Z,45.20
2019-04-03T18:33:33.499Z,45.10
2019-04-03T18:38:38.564Z,45.30
2019-04-03T18:43:44.184Z,45.20
2019-04-03T18:48:53.201Z,45.30
2019-04-03T18:53:53.499Z,45.30
2019-04-03T18:58:57.349Z,45.60
2019-04-03T19:04:02.412Z,45.70
2019-04-03T19:09:09.956Z,45.60
2019-04-03T19:14:21.409Z,45.70
2019-04-03T19:19:22.781Z,45.80
2019-04-03T19:24:25.359Z,45.90
2019-04-03T19:29:29.336Z,46.10
2019-04-03T19:34:33.471Z,45.70
2019-04-03T19:39:37.719Z,46.00
2019-04-03T19:44:41.952Z,46.20
2019-04-03T19:49:47.910Z,46.20
2019-04-03T19:54:51.479Z,46.20
2019-04-03T19:59:55.967Z,46.40
2019-04-03T20:04:59.919Z,46.10
2019-04-03T20:10:04.433Z,46.10
2019-04-03T20:15:08.780Z,46.20
2019-04-03T20:20:12.958Z,46.90
2019-04-03T20:25:17.059Z,48.40
2019-04-03T20:30:20.936Z,48.30
2019-04-03T20:35:24.776Z,48.50
2019-04-03T20:40:31.733Z,47.80
2019-04-03T20:45:34.550Z,47.80
2019-04-03T20:50:38.772Z,47.50
2019-04-03T20:55:42.644Z,47.90
2019-04-03T21:00:49.382Z,51.90
2019-04-03T21:05:51.926Z,52.40
2019-04-03T21:10:55.611Z,51.00
2019-04-03T21:15:59.357Z,50.60
2019-04-03T21:21:03.308Z,51.00
2019-04-03T21:26:07.512Z,49.80
2019-04-03T21:31:11.509Z,49.20
2019-04-03T21:36:16.016Z,49.60
2019-04-03T21:41:21.378Z,49.00
2019-04-03T21:46:25.263Z,49.20
2019-04-03T21:51:30.016Z,47.70
2019-04-03T21:56:34.038Z,47.50
2019-04-03T22:01:39.130Z,47.50
2019-04-03T22:06:42.865Z,47.50
2019-04-03T22:11:48.726Z,47.50
2019-04-03T22:16:52.781Z,47.60
2019-04-03T22:21:57.514Z,46.80
2019-04-03T22:27:01.271Z,46.70
2019-04-03T22:32:05.276Z,46.80
2019-04-03T22:37:09.076Z,46.50
2019-04-03T22:42:14.707Z,46.40
2019-04-03T22:47:18.345Z,46.10
2019-04-03T22:52:22.226Z,46.20
2019-04-03T22:57:26.073Z,46.40
2019-04-03T23:02:29.886Z,46.10
2019-04-03T23:07:35.159Z,46.10
2019-04-03T23:12:38.899Z,45.90
2019-04-03T23:17:42.955Z,45.80
2019-04-03T23:22:48.888Z,45.80
2019-04-03T23:27:52.666Z,45.60
2019-04-03T23:32:56.275Z,45.50
2019-04-03T23:37:59.960Z,45.60
2019-04-03T23:43:03.797Z,45.50
2019-04-03T23:48:07.655Z,45.30
2019-04-03T23:53:11.526Z,45.30
2019-04-03T23:58:15.201Z,45.20
